sensor_id;sensor_type;location;lat;lon;timestamp;P1;durP1;ratioP1;P2;durP2;ratioP2
9413;SDS011;4746;35.664;139.738;2022-12-18T00:01:48;4.83;;;4.40;;
9413;SDS011;4746;35.664;139.738;2022-12-18T00:04:18;4.83;;;4.43;;
9413;SDS011;4746;35.664;139.738;2022-12-18T00:06:49;5.27;;;4.77;;
9413;SDS011;4746;35.664;139.738;2022-12-18T00:09:17;4.20;;;3.90;;
9413;SDS011;4746;35.664;139.738;2022-12-18T00:11:45;4.20;;;3.90;;
9413;SDS011;4746;35.664;139.738;2022-12-18T00:14:13;4.17;;;3.87;;
9413;SDS011;4746;35.664;139.738;2022-12-18T00:16:43;4.30;;;4.00;;
9413;SDS011;4746;35.664;139.738;2022-12-18T00:19:12;5.70;;;3.90;;
9413;SDS011;4746;35.664;139.738;2022-12-18T00:21:41;4.30;;;4.00;;
9413;SDS011;4746;35.664;139.738;2022-12-18T00:24:10;4.13;;;3.83;;
9413;SDS011;4746;35.664;139.738;2022-12-18T00:26:39;4.70;;;4.40;;
9413;SDS011;4746;35.664;139.738;2022-12-18T00:29:08;4.37;;;3.97;;
9413;SDS011;4746;35.664;139.738;2022-12-18T00:31:40;4.00;;;3.67;;
9413;SDS011;4746;35.664;139.738;2022-12-18T00:34:12;4.70;;;4.30;;
9413;SDS011;4746;35.664;139.738;2022-12-18T00:36:40;4.43;;;4.03;;
9413;SDS011;4746;35.664;139.738;2022-12-18T00:39:08;3.43;;;3.13;;
9413;SDS011;4746;35.664;139.738;2022-12-18T00:41:37;3.70;;;3.40;;
9413;SDS011;4746;35.664;139.738;2022-12-18T00:44:23;4.20;;;3.80;;
9413;SDS011;4746;35.664;139.738;2022-12-18T00:46:50;3.40;;;3.20;;
9413;SDS011;4746;35.664;139.738;2022-12-18T00:49:19;4.43;;;3.50;;
9413;SDS011;4746;35.664;139.738;2022-12-18T00:51:47;3.90;;;3.50;;
9413;SDS011;4746;35.664;139.738;2022-12-18T00:54:15;3.70;;;3.40;;
9413;SDS011;4746;35.664;139.738;2022-12-18T00:56:43;4.57;;;4.17;;
9413;SDS011;4746;35.664;139.738;2022-12-18T00:59:11;3.53;;;3.33;;
9413;SDS011;4746;35.664;139.738;2022-12-18T01:01:39;3.43;;;3.23;;
9413;SDS011;4746;35.664;139.738;2022-12-18T01:04:06;4.57;;;4.17;;
9413;SDS011;4746;35.664;139.738;2022-12-18T01:06:34;4.00;;;3.70;;
9413;SDS011;4746;35.664;139.738;2022-12-18T01:09:02;4.00;;;3.67;;
9413;SDS011;4746;35.664;139.738;2022-12-18T01:11:30;3.80;;;3.50;;
9413;SDS011;4746;35.664;139.738;2022-12-18T01:13:58;4.40;;;4.00;;
9413;SDS011;4746;35.664;139.738;2022-12-18T01:16:25;4.63;;;4.23;;
9413;SDS011;4746;35.664;139.738;2022-12-18T01:18:53;3.53;;;3.23;;
9413;SDS011;4746;35.664;139.738;2022-12-18T01:21:22;3.70;;;3.40;;
9413;SDS011;4746;35.664;139.738;2022-12-18T01:23:54;4.07;;;3.47;;
9413;SDS011;4746;35.664;139.738;2022-12-18T01:26:23;3.63;;;3.33;;
9413;SDS011;4746;35.664;139.738;2022-12-18T01:28:57;3.30;;;2.87;;
9413;SDS011;4746;35.664;139.738;2022-12-18T01:31:29;2.53;;;2.43;;
9413;SDS011;4746;35.664;139.738;2022-12-18T01:34:03;3.17;;;2.87;;
9413;SDS011;4746;35.664;139.738;2022-12-18T01:36:32;3.17;;;2.97;;
9413;SDS011;4746;35.664;139.738;2022-12-18T01:39:04;2.80;;;2.60;;
9413;SDS011;4746;35.664;139.738;2022-12-18T01:41:37;3.00;;;2.70;;
9413;SDS011;4746;35.664;139.738;2022-12-18T01:47:25;2.40;;;2.20;;
9413;SDS011;4746;35.664;139.738;2022-12-18T01:50:03;2.30;;;2.20;;
9413;SDS011;4746;35.664;139.738;2022-12-18T01:52:51;2.57;;;2.13;;
9413;SDS011;4746;35.664;139.738;2022-12-18T01:55:48;1.83;;;1.73;;
9413;SDS011;4746;35.664;139.738;2022-12-18T01:58:24;1.80;;;1.70;;
9413;SDS011;4746;35.664;139.738;2022-12-18T02:01:07;2.27;;;1.83;;
9413;SDS011;4746;35.664;139.738;2022-12-18T02:03:36;1.60;;;1.50;;
9413;SDS011;4746;35.664;139.738;2022-12-18T02:06:11;1.40;;;1.30;;
9413;SDS011;4746;35.664;139.738;2022-12-18T02:12:34;1.17;;;1.17;;
9413;SDS011;4746;35.664;139.738;2022-12-18T02:18:33;1.03;;;1.00;;
9413;SDS011;4746;35.664;139.738;2022-12-18T02:21:28;1.30;;;1.30;;
9413;SDS011;4746;35.664;139.738;2022-12-18T02:26:46;1.43;;;1.10;;
9413;SDS011;4746;35.664;139.738;2022-12-18T02:29:29;1.07;;;1.07;;
9413;SDS011;4746;35.664;139.738;2022-12-18T02:32:25;1.50;;;1.23;;
9413;SDS011;4746;35.664;139.738;2022-12-18T02:35:04;1.20;;;0.93;;
9413;SDS011;4746;35.664;139.738;2022-12-18T02:37:37;0.90;;;0.90;;
9413;SDS011;4746;35.664;139.738;2022-12-18T02:40:11;0.87;;;0.80;;
9413;SDS011;4746;35.664;139.738;2022-12-18T02:42:41;2.20;;;0.70;;
9413;SDS011;4746;35.664;139.738;2022-12-18T02:45:09;0.80;;;0.80;;
9413;SDS011;4746;35.664;139.738;2022-12-18T02:47:37;1.37;;;1.07;;
9413;SDS011;4746;35.664;139.738;2022-12-18T02:53:16;1.23;;;1.17;;
9413;SDS011;4746;35.664;139.738;2022-12-18T02:56:13;1.00;;;0.90;;
9413;SDS011;4746;35.664;139.738;2022-12-18T02:59:02;0.80;;;0.80;;
9413;SDS011;4746;35.664;139.738;2022-12-18T03:02:06;0.70;;;0.63;;
9413;SDS011;4746;35.664;139.738;2022-12-18T03:04:50;0.80;;;0.80;;
9413;SDS011;4746;35.664;139.738;2022-12-18T03:07:37;1.37;;;1.27;;
9413;SDS011;4746;35.664;139.738;2022-12-18T03:10:13;1.03;;;1.03;;
9413;SDS011;4746;35.664;139.738;2022-12-18T03:12:47;1.07;;;1.07;;
9413;SDS011;4746;35.664;139.738;2022-12-18T03:15:34;1.23;;;0.87;;
9413;SDS011;4746;35.664;139.738;2022-12-18T03:18:12;0.70;;;0.60;;
9413;SDS011;4746;35.664;139.738;2022-12-18T03:21:09;0.80;;;0.80;;
9413;SDS011;4746;35.664;139.738;2022-12-18T03:23:40;0.40;;;0.40;;
9413;SDS011;4746;35.664;139.738;2022-12-18T03:26:15;0.70;;;0.70;;
9413;SDS011;4746;35.664;139.738;2022-12-18T03:28:52;0.90;;;0.90;;
9413;SDS011;4746;35.664;139.738;2022-12-18T03:31:28;0.70;;;0.70;;
9413;SDS011;4746;35.664;139.738;2022-12-18T03:33:59;1.00;;;1.00;;
9413;SDS011;4746;35.664;139.738;2022-12-18T03:36:41;1.30;;;1.00;;
9413;SDS011;4746;35.664;139.738;2022-12-18T03:39:09;0.70;;;0.70;;
9413;SDS011;4746;35.664;139.738;2022-12-18T03:41:44;0.90;;;0.90;;
9413;SDS011;4746;35.664;139.738;2022-12-18T03:44:36;0.83;;;0.83;;
9413;SDS011;4746;35.664;139.738;2022-12-18T03:53:00;0.60;;;0.60;;
9413;SDS011;4746;35.664;139.738;2022-12-18T03:55:55;0.50;;;0.50;;
9413;SDS011;4746;35.664;139.738;2022-12-18T03:58:26;0.70;;;0.70;;
9413;SDS011;4746;35.664;139.738;2022-12-18T04:00:59;0.57;;;0.50;;
9413;SDS011;4746;35.664;139.738;2022-12-18T04:03:33;1.50;;;0.60;;
9413;SDS011;4746;35.664;139.738;2022-12-18T04:06:03;0.50;;;0.50;;
9413;SDS011;4746;35.664;139.738;2022-12-18T04:08:33;0.50;;;0.40;;
9413;SDS011;4746;35.664;139.738;2022-12-18T04:11:02;1.00;;;0.67;;
9413;SDS011;4746;35.664;139.738;2022-12-18T04:13:31;0.60;;;0.60;;
9413;SDS011;4746;35.664;139.738;2022-12-18T04:16:03;1.90;;;0.60;;
9413;SDS011;4746;35.664;139.738;2022-12-18T04:18:32;0.70;;;0.70;;
9413;SDS011;4746;35.664;139.738;2022-12-18T04:21:00;1.27;;;0.70;;
9413;SDS011;4746;35.664;139.738;2022-12-18T04:23:28;1.10;;;1.00;;
9413;SDS011;4746;35.664;139.738;2022-12-18T04:25:56;0.63;;;0.63;;
9413;SDS011;4746;35.664;139.738;2022-12-18T04:28:23;2.30;;;0.90;;
9413;SDS011;4746;35.664;139.738;2022-12-18T04:30:52;0.90;;;0.90;;
9413;SDS011;4746;35.664;139.738;2022-12-18T04:33:20;0.95;;;0.70;;
9413;SDS011;4746;35.664;139.738;2022-12-18T04:35:47;1.50;;;0.80;;
9413;SDS011;4746;35.664;139.738;2022-12-18T04:38:15;1.85;;;0.73;;
9413;SDS011;4746;35.664;139.738;2022-12-18T04:40:43;1.25;;;0.70;;
9413;SDS011;4746;35.664;139.738;2022-12-18T04:43:10;0.90;;;0.73;;
9413;SDS011;4746;35.664;139.738;2022-12-18T04:45:38;0.70;;;0.70;;
9413;SDS011;4746;35.664;139.738;2022-12-18T04:48:05;0.60;;;0.60;;
9413;SDS011;4746;35.664;139.738;2022-12-18T04:50:33;1.45;;;0.60;;
9413;SDS011;4746;35.664;139.738;2022-12-18T04:53:01;1.95;;;0.75;;
9413;SDS011;4746;35.664;139.738;2022-12-18T04:55:28;0.73;;;0.63;;
9413;SDS011;4746;35.664;139.738;2022-12-18T04:57:56;1.33;;;0.90;;
9413;SDS011;4746;35.664;139.738;2022-12-18T05:00:23;3.38;;;0.90;;
9413;SDS011;4746;35.664;139.738;2022-12-18T05:02:51;1.05;;;0.90;;
9413;SDS011;4746;35.664;139.738;2022-12-18T05:05:19;0.43;;;0.40;;
9413;SDS011;4746;35.664;139.738;2022-12-18T05:07:46;0.93;;;0.60;;
9413;SDS011;4746;35.664;139.738;2022-12-18T05:10:14;1.50;;;0.77;;
9413;SDS011;4746;35.664;139.738;2022-12-18T05:12:42;1.02;;;0.65;;
9413;SDS011;4746;35.664;139.738;2022-12-18T05:15:33;0.82;;;0.52;;
9413;SDS011;4746;35.664;139.738;2022-12-18T05:18:01;1.95;;;0.60;;
9413;SDS011;4746;35.664;139.738;2022-12-18T05:20:29;0.90;;;0.65;;
9413;SDS011;4746;35.664;139.738;2022-12-18T05:22:57;1.75;;;0.80;;
9413;SDS011;4746;35.664;139.738;2022-12-18T05:25:25;2.50;;;0.60;;
9413;SDS011;4746;35.664;139.738;2022-12-18T05:27:53;0.63;;;0.60;;
9413;SDS011;4746;35.664;139.738;2022-12-18T05:30:20;0.80;;;0.80;;
9413;SDS011;4746;35.664;139.738;2022-12-18T05:32:48;1.05;;;0.70;;
9413;SDS011;4746;35.664;139.738;2022-12-18T05:35:15;0.68;;;0.52;;
9413;SDS011;4746;35.664;139.738;2022-12-18T05:37:43;1.23;;;0.60;;
9413;SDS011;4746;35.664;139.738;2022-12-18T05:40:11;2.25;;;0.60;;
9413;SDS011;4746;35.664;139.738;2022-12-18T05:42:39;0.35;;;0.35;;
9413;SDS011;4746;35.664;139.738;2022-12-18T05:45:06;0.40;;;0.38;;
9413;SDS011;4746;35.664;139.738;2022-12-18T05:47:34;0.40;;;0.40;;
9413;SDS011;4746;35.664;139.738;2022-12-18T05:50:02;0.45;;;0.40;;
9413;SDS011;4746;35.664;139.738;2022-12-18T05:52:30;0.20;;;0.20;;
9413;SDS011;4746;35.664;139.738;2022-12-18T05:54:58;0.93;;;0.30;;
9413;SDS011;4746;35.664;139.738;2022-12-18T05:57:25;0.25;;;0.22;;
9413;SDS011;4746;35.664;139.738;2022-12-18T05:59:53;0.30;;;0.20;;
9413;SDS011;4746;35.664;139.738;2022-12-18T06:02:20;1.42;;;0.40;;
9413;SDS011;4746;35.664;139.738;2022-12-18T06:04:48;0.55;;;0.20;;
9413;SDS011;4746;35.664;139.738;2022-12-18T06:07:16;0.55;;;0.30;;
9413;SDS011;4746;35.664;139.738;2022-12-18T06:09:43;0.75;;;0.20;;
9413;SDS011;4746;35.664;139.738;2022-12-18T06:12:11;0.80;;;0.35;;
9413;SDS011;4746;35.664;139.738;2022-12-18T06:14:38;0.95;;;0.28;;
9413;SDS011;4746;35.664;139.738;2022-12-18T06:17:06;0.63;;;0.30;;
9413;SDS011;4746;35.664;139.738;2022-12-18T06:19:33;0.47;;;0.38;;
9413;SDS011;4746;35.664;139.738;2022-12-18T06:22:01;0.30;;;0.30;;
9413;SDS011;4746;35.664;139.738;2022-12-18T06:24:29;0.20;;;0.20;;
9413;SDS011;4746;35.664;139.738;2022-12-18T06:26:57;0.77;;;0.40;;
9413;SDS011;4746;35.664;139.738;2022-12-18T06:29:24;0.90;;;0.20;;
9413;SDS011;4746;35.664;139.738;2022-12-18T06:31:52;0.17;;;0.17;;
9413;SDS011;4746;35.664;139.738;2022-12-18T06:34:19;1.42;;;0.50;;
9413;SDS011;4746;35.664;139.738;2022-12-18T06:36:47;1.65;;;0.30;;
9413;SDS011;4746;35.664;139.738;2022-12-18T06:39:14;0.60;;;0.37;;
9413;SDS011;4746;35.664;139.738;2022-12-18T06:41:42;0.60;;;0.50;;
9413;SDS011;4746;35.664;139.738;2022-12-18T06:44:10;0.30;;;0.30;;
9413;SDS011;4746;35.664;139.738;2022-12-18T06:46:37;0.30;;;0.30;;
9413;SDS011;4746;35.664;139.738;2022-12-18T06:49:05;0.30;;;0.10;;
9413;SDS011;4746;35.664;139.738;2022-12-18T06:51:34;0.20;;;0.20;;
9413;SDS011;4746;35.664;139.738;2022-12-18T06:54:02;0.40;;;0.30;;
9413;SDS011;4746;35.664;139.738;2022-12-18T06:56:30;0.40;;;0.40;;
9413;SDS011;4746;35.664;139.738;2022-12-18T06:58:58;0.47;;;0.30;;
9413;SDS011;4746;35.664;139.738;2022-12-18T07:01:29;0.40;;;0.40;;
9413;SDS011;4746;35.664;139.738;2022-12-18T07:03:57;0.70;;;0.23;;
9413;SDS011;4746;35.664;139.738;2022-12-18T07:06:25;0.20;;;0.20;;
9413;SDS011;4746;35.664;139.738;2022-12-18T07:08:53;0.20;;;0.20;;
9413;SDS011;4746;35.664;139.738;2022-12-18T07:11:21;1.17;;;0.50;;
9413;SDS011;4746;35.664;139.738;2022-12-18T07:13:49;1.00;;;0.37;;
9413;SDS011;4746;35.664;139.738;2022-12-18T07:16:20;0.30;;;0.30;;
9413;SDS011;4746;35.664;139.738;2022-12-18T07:18:48;0.40;;;0.40;;
9413;SDS011;4746;35.664;139.738;2022-12-18T07:21:17;1.07;;;0.37;;
9413;SDS011;4746;35.664;139.738;2022-12-18T07:23:46;0.80;;;0.60;;
9413;SDS011;4746;35.664;139.738;2022-12-18T07:26:14;0.30;;;0.30;;
9413;SDS011;4746;35.664;139.738;2022-12-18T07:28:44;0.70;;;0.70;;
9413;SDS011;4746;35.664;139.738;2022-12-18T07:31:13;1.10;;;0.40;;
9413;SDS011;4746;35.664;139.738;2022-12-18T07:33:44;0.97;;;0.40;;
9413;SDS011;4746;35.664;139.738;2022-12-18T07:36:12;0.30;;;0.30;;
9413;SDS011;4746;35.664;139.738;2022-12-18T07:38:41;0.40;;;0.40;;
9413;SDS011;4746;35.664;139.738;2022-12-18T07:41:09;0.40;;;0.40;;
9413;SDS011;4746;35.664;139.738;2022-12-18T07:43:39;0.40;;;0.40;;
9413;SDS011;4746;35.664;139.738;2022-12-18T07:46:08;0.83;;;0.50;;
9413;SDS011;4746;35.664;139.738;2022-12-18T07:48:36;0.50;;;0.50;;
9413;SDS011;4746;35.664;139.738;2022-12-18T07:51:05;0.50;;;0.50;;
9413;SDS011;4746;35.664;139.738;2022-12-18T07:53:33;0.60;;;0.60;;
9413;SDS011;4746;35.664;139.738;2022-12-18T07:56:03;0.43;;;0.43;;
9413;SDS011;4746;35.664;139.738;2022-12-18T07:58:34;0.83;;;0.60;;
9413;SDS011;4746;35.664;139.738;2022-12-18T08:01:03;0.53;;;0.53;;
9413;SDS011;4746;35.664;139.738;2022-12-18T08:03:38;0.93;;;0.70;;
9413;SDS011;4746;35.664;139.738;2022-12-18T08:06:08;0.70;;;0.70;;
9413;SDS011;4746;35.664;139.738;2022-12-18T08:08:36;0.60;;;0.60;;
9413;SDS011;4746;35.664;139.738;2022-12-18T08:11:05;0.57;;;0.57;;
9413;SDS011;4746;35.664;139.738;2022-12-18T08:13:36;0.80;;;0.80;;
9413;SDS011;4746;35.664;139.738;2022-12-18T08:16:06;0.60;;;0.60;;
9413;SDS011;4746;35.664;139.738;2022-12-18T08:18:35;0.60;;;0.60;;
9413;SDS011;4746;35.664;139.738;2022-12-18T08:21:10;0.70;;;0.70;;
9413;SDS011;4746;35.664;139.738;2022-12-18T08:23:43;1.13;;;0.70;;
9413;SDS011;4746;35.664;139.738;2022-12-18T08:26:11;1.57;;;0.70;;
9413;SDS011;4746;35.664;139.738;2022-12-18T08:28:39;0.60;;;0.60;;
9413;SDS011;4746;35.664;139.738;2022-12-18T08:31:07;1.10;;;1.00;;
9413;SDS011;4746;35.664;139.738;2022-12-18T08:33:36;1.13;;;0.73;;
9413;SDS011;4746;35.664;139.738;2022-12-18T08:36:05;0.80;;;0.80;;
9413;SDS011;4746;35.664;139.738;2022-12-18T08:38:34;1.10;;;0.73;;
9413;SDS011;4746;35.664;139.738;2022-12-18T08:41:02;2.87;;;0.80;;
9413;SDS011;4746;35.664;139.738;2022-12-18T08:43:34;1.00;;;1.00;;
9413;SDS011;4746;35.664;139.738;2022-12-18T08:46:20;0.60;;;0.60;;
9413;SDS011;4746;35.664;139.738;2022-12-18T08:48:53;1.00;;;0.80;;
9413;SDS011;4746;35.664;139.738;2022-12-18T08:51:21;0.57;;;0.57;;
9413;SDS011;4746;35.664;139.738;2022-12-18T08:53:49;1.43;;;0.90;;
9413;SDS011;4746;35.664;139.738;2022-12-18T08:56:16;0.80;;;0.80;;
9413;SDS011;4746;35.664;139.738;2022-12-18T08:58:44;0.63;;;0.63;;
9413;SDS011;4746;35.664;139.738;2022-12-18T09:01:12;0.83;;;0.83;;
9413;SDS011;4746;35.664;139.738;2022-12-18T09:03:40;0.70;;;0.70;;
9413;SDS011;4746;35.664;139.738;2022-12-18T09:06:07;1.13;;;0.93;;
9413;SDS011;4746;35.664;139.738;2022-12-18T09:08:35;0.87;;;0.87;;
9413;SDS011;4746;35.664;139.738;2022-12-18T09:11:04;1.00;;;0.90;;
9413;SDS011;4746;35.664;139.738;2022-12-18T09:13:47;0.80;;;0.80;;
9413;SDS011;4746;35.664;139.738;2022-12-18T09:16:15;0.80;;;0.80;;
9413;SDS011;4746;35.664;139.738;2022-12-18T09:18:45;0.70;;;0.70;;
9413;SDS011;4746;35.664;139.738;2022-12-18T09:21:15;1.30;;;0.73;;
9413;SDS011;4746;35.664;139.738;2022-12-18T09:23:49;1.13;;;0.90;;
9413;SDS011;4746;35.664;139.738;2022-12-18T09:26:19;0.90;;;0.90;;
9413;SDS011;4746;35.664;139.738;2022-12-18T09:28:50;1.13;;;0.80;;
9413;SDS011;4746;35.664;139.738;2022-12-18T09:31:20;1.53;;;0.90;;
9413;SDS011;4746;35.664;139.738;2022-12-18T09:33:50;0.77;;;0.77;;
9413;SDS011;4746;35.664;139.738;2022-12-18T09:36:18;0.90;;;0.90;;
9413;SDS011;4746;35.664;139.738;2022-12-18T09:38:46;0.70;;;0.70;;
9413;SDS011;4746;35.664;139.738;2022-12-18T09:44:20;0.70;;;0.70;;
9413;SDS011;4746;35.664;139.738;2022-12-18T09:50:05;0.93;;;0.80;;
9413;SDS011;4746;35.664;139.738;2022-12-18T09:53:04;0.67;;;0.67;;
9413;SDS011;4746;35.664;139.738;2022-12-18T09:55:42;1.10;;;1.00;;
9413;SDS011;4746;35.664;139.738;2022-12-18T09:58:35;0.60;;;0.60;;
9413;SDS011;4746;35.664;139.738;2022-12-18T10:01:16;0.60;;;0.60;;
9413;SDS011;4746;35.664;139.738;2022-12-18T10:03:48;0.80;;;0.80;;
9413;SDS011;4746;35.664;139.738;2022-12-18T10:12:23;1.53;;;0.90;;
9413;SDS011;4746;35.664;139.738;2022-12-18T10:14:57;1.00;;;0.90;;
9413;SDS011;4746;35.664;139.738;2022-12-18T10:17:41;0.93;;;0.80;;
9413;SDS011;4746;35.664;139.738;2022-12-18T10:20:49;1.00;;;0.90;;
9413;SDS011;4746;35.664;139.738;2022-12-18T10:23:27;1.07;;;0.90;;
9413;SDS011;4746;35.664;139.738;2022-12-18T10:26:20;1.00;;;1.00;;
9413;SDS011;4746;35.664;139.738;2022-12-18T10:28:47;3.27;;;1.00;;
9413;SDS011;4746;35.664;139.738;2022-12-18T10:31:18;0.83;;;0.83;;
9413;SDS011;4746;35.664;139.738;2022-12-18T10:33:48;1.23;;;1.00;;
9413;SDS011;4746;35.664;139.738;2022-12-18T10:36:16;1.80;;;0.90;;
9413;SDS011;4746;35.664;139.738;2022-12-18T10:38:43;1.17;;;1.07;;
9413;SDS011;4746;35.664;139.738;2022-12-18T10:43:46;0.70;;;0.70;;
9413;SDS011;4746;35.664;139.738;2022-12-18T10:46:15;1.33;;;1.33;;
9413;SDS011;4746;35.664;139.738;2022-12-18T10:54:05;1.17;;;1.00;;
9413;SDS011;4746;35.664;139.738;2022-12-18T10:56:52;0.90;;;0.90;;
9413;SDS011;4746;35.664;139.738;2022-12-18T11:00:18;1.50;;;1.10;;
9413;SDS011;4746;35.664;139.738;2022-12-18T11:02:56;1.03;;;1.03;;
9413;SDS011;4746;35.664;139.738;2022-12-18T11:05:29;1.23;;;1.17;;
9413;SDS011;4746;35.664;139.738;2022-12-18T11:08:00;0.90;;;0.90;;
9413;SDS011;4746;35.664;139.738;2022-12-18T11:13:24;1.10;;;1.00;;
9413;SDS011;4746;35.664;139.738;2022-12-18T11:15:56;1.80;;;1.23;;
9413;SDS011;4746;35.664;139.738;2022-12-18T11:18:32;1.00;;;1.00;;
9413;SDS011;4746;35.664;139.738;2022-12-18T11:21:06;0.90;;;0.90;;
9413;SDS011;4746;35.664;139.738;2022-12-18T11:23:44;0.83;;;0.83;;
9413;SDS011;4746;35.664;139.738;2022-12-18T11:26:19;0.93;;;0.93;;
9413;SDS011;4746;35.664;139.738;2022-12-18T11:29:09;0.90;;;0.90;;
9413;SDS011;4746;35.664;139.738;2022-12-18T11:31:49;0.93;;;0.80;;
9413;SDS011;4746;35.664;139.738;2022-12-18T11:34:26;0.80;;;0.80;;
9413;SDS011;4746;35.664;139.738;2022-12-18T11:36:57;0.70;;;0.70;;
9413;SDS011;4746;35.664;139.738;2022-12-18T11:39:45;1.10;;;0.90;;
9413;SDS011;4746;35.664;139.738;2022-12-18T11:42:35;0.70;;;0.70;;
9413;SDS011;4746;35.664;139.738;2022-12-18T11:45:25;0.90;;;0.90;;
9413;SDS011;4746;35.664;139.738;2022-12-18T11:47:58;1.40;;;0.80;;
9413;SDS011;4746;35.664;139.738;2022-12-18T11:51:01;0.80;;;0.80;;
9413;SDS011;4746;35.664;139.738;2022-12-18T11:53:37;0.70;;;0.70;;
9413;SDS011;4746;35.664;139.738;2022-12-18T11:56:11;1.10;;;0.80;;
9413;SDS011;4746;35.664;139.738;2022-12-18T11:59:08;1.00;;;1.00;;
9413;SDS011;4746;35.664;139.738;2022-12-18T12:08:31;1.00;;;1.00;;
9413;SDS011;4746;35.664;139.738;2022-12-18T12:11:33;0.80;;;0.80;;
9413;SDS011;4746;35.664;139.738;2022-12-18T12:17:12;1.20;;;1.13;;
9413;SDS011;4746;35.664;139.738;2022-12-18T12:20:16;1.20;;;1.20;;
9413;SDS011;4746;35.664;139.738;2022-12-18T12:26:13;1.03;;;1.03;;
9413;SDS011;4746;35.664;139.738;2022-12-18T12:32:36;1.17;;;1.00;;
9413;SDS011;4746;35.664;139.738;2022-12-18T12:35:51;1.10;;;1.10;;
9413;SDS011;4746;35.664;139.738;2022-12-18T12:38:54;1.23;;;1.10;;
9413;SDS011;4746;35.664;139.738;2022-12-18T12:41:32;1.50;;;1.37;;
9413;SDS011;4746;35.664;139.738;2022-12-18T12:44:30;1.10;;;1.00;;
9413;SDS011;4746;35.664;139.738;2022-12-18T12:47:19;0.90;;;0.90;;
9413;SDS011;4746;35.664;139.738;2022-12-18T12:49:56;1.10;;;1.10;;
9413;SDS011;4746;35.664;139.738;2022-12-18T12:52:30;1.10;;;1.00;;
9413;SDS011;4746;35.664;139.738;2022-12-18T12:55:12;0.90;;;0.90;;
9413;SDS011;4746;35.664;139.738;2022-12-18T13:01:08;1.00;;;1.00;;
9413;SDS011;4746;35.664;139.738;2022-12-18T13:09:02;1.00;;;0.90;;
9413;SDS011;4746;35.664;139.738;2022-12-18T13:11:31;1.30;;;1.20;;
9413;SDS011;4746;35.664;139.738;2022-12-18T13:14:24;1.20;;;1.20;;
9413;SDS011;4746;35.664;139.738;2022-12-18T13:19:51;1.30;;;1.20;;
9413;SDS011;4746;35.664;139.738;2022-12-18T13:22:44;1.47;;;1.37;;
9413;SDS011;4746;35.664;139.738;2022-12-18T13:25:35;1.80;;;1.70;;
9413;SDS011;4746;35.664;139.738;2022-12-18T13:31:11;1.37;;;1.27;;
9413;SDS011;4746;35.664;139.738;2022-12-18T13:36:14;1.60;;;1.27;;
9413;SDS011;4746;35.664;139.738;2022-12-18T13:39:10;1.30;;;1.20;;
9413;SDS011;4746;35.664;139.738;2022-12-18T13:41:48;1.37;;;1.27;;
9413;SDS011;4746;35.664;139.738;2022-12-18T13:44:59;1.33;;;1.30;;
9413;SDS011;4746;35.664;139.738;2022-12-18T13:47:36;1.70;;;1.30;;
9413;SDS011;4746;35.664;139.738;2022-12-18T13:53:02;1.40;;;1.30;;
9413;SDS011;4746;35.664;139.738;2022-12-18T13:55:31;1.47;;;1.37;;
9413;SDS011;4746;35.664;139.738;2022-12-18T13:58:05;1.60;;;1.50;;
9413;SDS011;4746;35.664;139.738;2022-12-18T14:00:41;1.30;;;1.20;;
9413;SDS011;4746;35.664;139.738;2022-12-18T14:03:21;1.00;;;1.00;;
9413;SDS011;4746;35.664;139.738;2022-12-18T14:05:54;1.27;;;1.17;;
9413;SDS011;4746;35.664;139.738;2022-12-18T14:08:38;0.97;;;0.97;;
9413;SDS011;4746;35.664;139.738;2022-12-18T14:11:17;1.00;;;1.00;;
9413;SDS011;4746;35.664;139.738;2022-12-18T14:13:48;1.10;;;1.10;;
9413;SDS011;4746;35.664;139.738;2022-12-18T14:16:16;0.97;;;0.97;;
9413;SDS011;4746;35.664;139.738;2022-12-18T14:18:54;1.17;;;1.03;;
9413;SDS011;4746;35.664;139.738;2022-12-18T14:21:30;1.00;;;1.00;;
9413;SDS011;4746;35.664;139.738;2022-12-18T14:24:19;0.80;;;0.80;;
9413;SDS011;4746;35.664;139.738;2022-12-18T14:26:48;0.90;;;0.90;;
9413;SDS011;4746;35.664;139.738;2022-12-18T14:34:49;1.23;;;1.20;;
9413;SDS011;4746;35.664;139.738;2022-12-18T14:37:23;0.90;;;0.90;;
9413;SDS011;4746;35.664;139.738;2022-12-18T14:39:53;1.20;;;1.20;;
9413;SDS011;4746;35.664;139.738;2022-12-18T14:42:30;0.80;;;0.80;;
9413;SDS011;4746;35.664;139.738;2022-12-18T14:50:57;1.30;;;1.00;;
9413;SDS011;4746;35.664;139.738;2022-12-18T14:53:49;1.03;;;0.90;;
9413;SDS011;4746;35.664;139.738;2022-12-18T14:56:35;1.00;;;1.00;;
9413;SDS011;4746;35.664;139.738;2022-12-18T14:59:15;0.90;;;0.90;;
9413;SDS011;4746;35.664;139.738;2022-12-18T15:04:37;1.00;;;1.00;;
9413;SDS011;4746;35.664;139.738;2022-12-18T15:07:22;1.53;;;1.20;;
9413;SDS011;4746;35.664;139.738;2022-12-18T15:12:34;1.20;;;1.10;;
9413;SDS011;4746;35.664;139.738;2022-12-18T15:20:48;1.10;;;1.10;;
9413;SDS011;4746;35.664;139.738;2022-12-18T15:23:33;1.30;;;1.20;;
9413;SDS011;4746;35.664;139.738;2022-12-18T15:26:12;1.40;;;1.30;;
9413;SDS011;4746;35.664;139.738;2022-12-18T15:28:52;1.40;;;1.30;;
9413;SDS011;4746;35.664;139.738;2022-12-18T15:34:13;1.23;;;1.13;;
9413;SDS011;4746;35.664;139.738;2022-12-18T15:36:47;1.13;;;1.10;;
9413;SDS011;4746;35.664;139.738;2022-12-18T15:39:17;1.20;;;1.10;;
9413;SDS011;4746;35.664;139.738;2022-12-18T15:41:45;1.10;;;1.10;;
9413;SDS011;4746;35.664;139.738;2022-12-18T15:44:31;1.30;;;1.30;;
9413;SDS011;4746;35.664;139.738;2022-12-18T15:46:59;2.03;;;1.10;;
9413;SDS011;4746;35.664;139.738;2022-12-18T15:49:26;1.13;;;1.00;;
9413;SDS011;4746;35.664;139.738;2022-12-18T15:51:56;1.10;;;1.07;;
9413;SDS011;4746;35.664;139.738;2022-12-18T15:54:27;1.30;;;1.30;;
9413;SDS011;4746;35.664;139.738;2022-12-18T15:57:13;1.53;;;1.43;;
9413;SDS011;4746;35.664;139.738;2022-12-18T15:59:53;1.37;;;1.20;;
9413;SDS011;4746;35.664;139.738;2022-12-18T16:02:23;1.37;;;1.33;;
9413;SDS011;4746;35.664;139.738;2022-12-18T16:04:53;1.10;;;1.10;;
9413;SDS011;4746;35.664;139.738;2022-12-18T16:07:21;1.13;;;1.10;;
9413;SDS011;4746;35.664;139.738;2022-12-18T16:09:48;1.20;;;1.10;;
9413;SDS011;4746;35.664;139.738;2022-12-18T16:12:20;1.43;;;1.33;;
9413;SDS011;4746;35.664;139.738;2022-12-18T16:14:51;1.53;;;1.20;;
9413;SDS011;4746;35.664;139.738;2022-12-18T16:17:20;1.90;;;1.40;;
9413;SDS011;4746;35.664;139.738;2022-12-18T16:19:47;1.50;;;1.40;;
9413;SDS011;4746;35.664;139.738;2022-12-18T16:22:21;2.70;;;1.10;;
9413;SDS011;4746;35.664;139.738;2022-12-18T16:24:53;1.10;;;1.00;;
9413;SDS011;4746;35.664;139.738;2022-12-18T16:27:22;1.27;;;1.27;;
9413;SDS011;4746;35.664;139.738;2022-12-18T16:29:51;1.00;;;1.00;;
9413;SDS011;4746;35.664;139.738;2022-12-18T16:32:19;1.23;;;1.13;;
9413;SDS011;4746;35.664;139.738;2022-12-18T16:34:48;1.23;;;1.13;;
9413;SDS011;4746;35.664;139.738;2022-12-18T16:37:15;1.70;;;0.93;;
9413;SDS011;4746;35.664;139.738;2022-12-18T16:39:43;1.03;;;1.03;;
9413;SDS011;4746;35.664;139.738;2022-12-18T16:44:44;1.27;;;1.20;;
9413;SDS011;4746;35.664;139.738;2022-12-18T16:47:14;0.93;;;0.93;;
9413;SDS011;4746;35.664;139.738;2022-12-18T16:49:43;1.30;;;1.20;;
9413;SDS011;4746;35.664;139.738;2022-12-18T16:52:11;0.87;;;0.87;;
9413;SDS011;4746;35.664;139.738;2022-12-18T16:54:39;1.60;;;1.50;;
9413;SDS011;4746;35.664;139.738;2022-12-18T16:57:08;1.10;;;1.10;;
9413;SDS011;4746;35.664;139.738;2022-12-18T16:59:41;1.07;;;1.07;;
9413;SDS011;4746;35.664;139.738;2022-12-18T17:02:14;2.10;;;1.20;;
9413;SDS011;4746;35.664;139.738;2022-12-18T17:04:48;1.40;;;1.30;;
9413;SDS011;4746;35.664;139.738;2022-12-18T17:07:18;2.17;;;1.40;;
9413;SDS011;4746;35.664;139.738;2022-12-18T17:09:49;1.00;;;1.00;;
9413;SDS011;4746;35.664;139.738;2022-12-18T17:12:20;1.23;;;1.20;;
9413;SDS011;4746;35.664;139.738;2022-12-18T17:14:49;1.30;;;1.20;;
9413;SDS011;4746;35.664;139.738;2022-12-18T17:17:17;1.70;;;1.10;;